Time;durP1;ratioP1;P1;durP2;ratioP2;P2;SDS_P1;SDS_P2;PMS_P1;PMS_P2;Temp;Humidity;BMP_temperature;BMP_pressure;BME280_temperature;BME280_humidity;BME280_pressure;Samples;Min_cycle;Max_cycle;Signal;HPM_P1;HPM_P2
2022/07/14 00:00:54;;;;;;;12.75;3.13;;;;;;;15.99;98.58;101927.03;5227283;28;20110;-64
2022/07/14 00:03:25;;;;;;;13.23;3.25;;;;;;;15.93;97.72;101912.25;5241957;28;20038;-65
2022/07/14 00:05:56;;;;;;;13.48;3.75;;;;;;;15.88;97.76;101918.03;5236149;28;20025;-65
2022/07/14 00:08:28;;;;;;;12.18;2.90;;;;;;;15.92;98.98;101928.56;5235680;28;20110;-64
2022/07/14 00:10:59;;;;;;;10.52;3.30;;;;;;;15.88;98.52;101931.47;5242114;28;20309;-65
2022/07/14 00:13:32;;;;;;;11.18;3.63;;;;;;;15.74;98.01;101925.50;5241263;28;20495;-64
2022/07/14 00:16:04;;;;;;;13.15;3.63;;;;;;;15.90;100.00;101914.34;5238361;28;20113;-64
2022/07/14 00:18:43;;;;;;;12.80;3.58;;;;;;;15.85;99.94;101904.81;5237534;28;20033;-65
2022/07/14 00:21:16;;;;;;;15.07;3.92;;;;;;;15.84;99.78;101897.72;5238243;28;20429;-65
2022/07/14 00:23:47;;;;;;;16.42;4.93;;;;;;;15.92;100.00;101885.47;5239541;28;20130;-64
2022/07/14 00:26:19;;;;;;;12.13;4.18;;;;;;;15.82;98.84;101888.94;5242842;28;20033;-64
2022/07/14 00:28:50;;;;;;;12.82;3.42;;;;;;;15.99;99.81;101875.91;5243659;28;20500;-64
2022/07/14 00:31:21;;;;;;;12.82;3.58;;;;;;;15.81;99.17;101895.28;5232208;28;20641;-64
2022/07/14 00:33:53;;;;;;;14.43;3.90;;;;;;;15.78;99.41;101902.75;5245782;28;20064;-65
2022/07/14 00:36:26;;;;;;;11.70;3.25;;;;;;;15.79;99.55;101918.78;5245338;28;20031;-66
2022/07/14 00:38:58;;;;;;;13.77;3.60;;;;;;;15.72;99.75;101904.06;5234170;28;20057;-65
2022/07/14 00:41:29;;;;;;;13.18;4.20;;;;;;;15.67;100.00;101906.28;5245670;28;20115;-64
2022/07/14 00:44:03;;;;;;;11.40;4.10;;;;;;;15.61;100.00;101907.66;5243208;28;20033;-65
2022/07/14 00:46:38;;;;;;;14.02;4.18;;;;;;;15.56;100.00;101909.84;5235565;28;20026;-64
2022/07/14 00:49:09;;;;;;;14.73;3.92;;;;;;;15.54;100.00;101906.41;5237882;28;20068;-64
2022/07/14 00:51:40;;;;;;;15.18;5.00;;;;;;;15.52;100.00;101896.78;5248107;28;20542;-64
2022/07/14 00:54:24;;;;;;;14.25;4.65;;;;;;;15.55;100.00;101901.88;5243715;28;20022;-64
2022/07/14 00:56:55;;;;;;;12.70;4.82;;;;;;;15.54;100.00;101910.97;5235858;28;20644;-65
2022/07/14 00:59:27;;;;;;;11.40;4.00;;;;;;;15.46;100.00;101914.25;5248147;28;20032;-64
2022/07/14 01:01:58;;;;;;;12.32;4.60;;;;;;;15.44;100.00;101905.47;5232421;28;20029;-65
2022/07/14 01:04:29;;;;;;;15.38;4.63;;;;;;;15.45;100.00;101901.78;5238838;28;20028;-64
2022/07/14 01:07:01;;;;;;;12.15;4.93;;;;;;;15.44;100.00;101913.53;5250450;28;20044;-65
2022/07/14 01:09:32;;;;;;;12.70;4.35;;;;;;;15.44;100.00;101921.59;5240825;28;20036;-64
2022/07/14 01:12:04;;;;;;;11.35;4.50;;;;;;;15.45;100.00;101928.69;5238209;28;20032;-65
2022/07/14 01:14:36;;;;;;;11.60;4.22;;;;;;;15.39;100.00;101929.16;5241465;28;20029;-64
2022/07/14 01:17:09;;;;;;;15.35;4.60;;;;;;;15.55;100.00;101928.78;5240981;28;20061;-64
2022/07/14 01:19:41;;;;;;;11.10;4.55;;;;;;;15.41;100.00;101920.00;5239851;28;20052;-65
2022/07/14 01:22:12;;;;;;;15.73;4.53;;;;;;;15.40;100.00;101922.81;5235783;28;20021;-64
2022/07/14 01:24:43;;;;;;;14.90;4.45;;;;;;;15.40;100.00;101930.91;5239398;28;20028;-64
2022/07/14 01:27:14;;;;;;;14.07;4.53;;;;;;;15.56;100.00;101925.97;5239109;28;20033;-64
2022/07/14 01:29:45;;;;;;;14.23;4.53;;;;;;;15.42;100.00;101935.16;5235886;28;20033;-64
2022/07/14 01:32:17;;;;;;;13.63;4.93;;;;;;;15.43;100.00;101926.09;5230476;28;20033;-64
2022/07/14 01:34:48;;;;;;;14.18;5.43;;;;;;;15.45;100.00;101936.75;5244263;28;20037;-64
2022/07/14 01:37:20;;;;;;;15.68;4.70;;;;;;;15.40;100.00;101930.91;5227247;28;20032;-64
2022/07/14 01:39:51;;;;;;;16.13;4.97;;;;;;;15.37;100.00;101926.59;5229582;28;20067;-64
2022/07/14 01:42:23;;;;;;;17.77;4.50;;;;;;;15.34;100.00;101931.34;5236545;28;20542;-65
2022/07/14 01:44:54;;;;;;;11.45;4.50;;;;;;;15.32;100.00;101934.16;5239586;28;20472;-65
2022/07/14 01:47:25;;;;;;;16.73;5.18;;;;;;;15.27;100.00;101920.25;5237216;28;20557;-65
2022/07/14 01:49:56;;;;;;;17.65;4.97;;;;;;;15.24;100.00;101920.47;5252008;28;20032;-64
2022/07/14 01:52:28;;;;;;;13.23;4.55;;;;;;;15.22;100.00;101922.44;5231892;28;20505;-65
2022/07/14 01:54:59;;;;;;;14.55;4.72;;;;;;;15.19;100.00;101928.06;5236445;28;20126;-64
2022/07/14 01:57:30;;;;;;;13.27;4.78;;;;;;;15.21;100.00;101912.69;5253587;28;20032;-64
2022/07/14 02:00:04;;;;;;;11.25;4.63;;;;;;;15.22;100.00;101919.75;5243908;28;20152;-64
2022/07/14 02:02:35;;;;;;;15.77;4.57;;;;;;;15.22;100.00;101917.91;5236815;28;20416;-64
2022/07/14 02:05:09;;;;;;;14.32;4.35;;;;;;;15.24;100.00;101915.94;5239045;28;20476;-64
2022/07/14 02:07:40;;;;;;;11.85;4.78;;;;;;;15.21;100.00;101921.59;5233243;28;20029;-64
2022/07/14 02:13:01;;;;;;;15.55;4.30;;;;;;;15.08;100.00;101921.69;5236434;28;20038;-64
2022/07/14 02:15:32;;;;;;;12.18;4.30;;;;;;;15.05;100.00;101927.31;5234644;28;20024;-64
2022/07/14 02:18:04;;;;;;;16.63;4.65;;;;;;;14.97;100.00;101912.75;5241743;28;20024;-64
2022/07/14 02:20:35;;;;;;;12.25;4.15;;;;;;;14.97;100.00;101908.22;5240792;28;20087;-64
2022/07/14 02:23:06;;;;;;;13.65;4.53;;;;;;;14.93;100.00;101913.97;5236009;28;20903;-64
2022/07/14 02:25:38;;;;;;;12.20;4.53;;;;;;;14.85;100.00;101928.00;5241217;28;20017;-64
2022/07/14 02:28:09;;;;;;;15.02;4.38;;;;;;;14.86;100.00;101917.16;5237489;28;20031;-64
2022/07/14 02:30:40;;;;;;;14.02;4.45;;;;;;;14.84;100.00;101924.47;5231329;28;20033;-64
2022/07/14 02:33:12;;;;;;;12.02;4.43;;;;;;;14.80;100.00;101922.97;5241115;28;20032;-64
2022/07/14 02:35:43;;;;;;;14.30;4.57;;;;;;;14.81;100.00;101919.31;5234087;28;20029;-65
2022/07/14 02:38:14;;;;;;;14.52;4.55;;;;;;;14.71;100.00;101904.91;5236804;28;20116;-65
2022/07/14 02:40:45;;;;;;;16.13;4.82;;;;;;;14.72;100.00;101905.75;5241770;28;20227;-65
2022/07/14 02:43:17;;;;;;;15.18;4.72;;;;;;;14.63;100.00;101905.50;5238715;28;20412;-66
2022/07/14 02:45:48;;;;;;;13.10;4.50;;;;;;;14.59;100.00;101904.00;5234657;28;20044;-65
2022/07/14 02:48:20;;;;;;;15.43;5.05;;;;;;;14.65;100.00;101898.16;5239141;28;20141;-65
2022/07/14 02:50:58;;;;;;;13.73;5.30;;;;;;;14.67;100.00;101892.69;5242344;28;20032;-66
2022/07/14 02:53:30;;;;;;;14.02;4.53;;;;;;;14.52;100.00;101889.31;5234183;28;20028;-65
2022/07/14 02:56:03;;;;;;;13.48;5.13;;;;;;;14.52;100.00;101887.47;5239710;28;20448;-64
2022/07/14 02:58:34;;;;;;;17.70;5.68;;;;;;;14.48;100.00;101890.53;5241309;28;20507;-65
2022/07/14 03:01:07;;;;;;;14.77;5.07;;;;;;;14.47;100.00;101892.34;5234458;28;20136;-65
2022/07/14 03:03:38;;;;;;;15.27;5.07;;;;;;;14.42;100.00;101896.34;5237886;28;20081;-65
2022/07/14 03:06:15;;;;;;;16.42;4.65;;;;;;;14.39;100.00;101902.81;5237890;28;20017;-64
2022/07/14 03:08:46;;;;;;;11.98;4.80;;;;;;;14.40;100.00;101896.47;5234484;28;20116;-64
2022/07/14 03:11:17;;;;;;;13.80;5.40;;;;;;;14.42;100.00;101889.16;5241155;28;20039;-65
2022/07/14 03:13:49;;;;;;;14.95;5.03;;;;;;;14.34;100.00;101879.97;5237488;28;20196;-65
2022/07/14 03:16:20;;;;;;;11.93;4.95;;;;;;;14.36;100.00;101869.97;5237074;28;20063;-65
2022/07/14 03:18:51;;;;;;;12.50;5.00;;;;;;;14.29;100.00;101883.00;5236576;28;20091;-64
2022/07/14 03:21:23;;;;;;;15.23;5.60;;;;;;;14.42;100.00;101869.47;5242020;28;20399;-66
2022/07/14 03:23:54;;;;;;;17.15;4.97;;;;;;;14.43;100.00;101871.22;5235933;28;20383;-65
2022/07/14 03:26:28;;;;;;;15.88;5.00;;;;;;;14.38;100.00;101868.91;5236570;28;20029;-65
2022/07/14 03:28:59;;;;;;;19.08;5.53;;;;;;;14.37;100.00;101859.13;5238409;28;20109;-65
2022/07/14 03:31:31;;;;;;;16.55;5.90;;;;;;;14.26;100.00;101867.97;5234423;28;20032;-64
2022/07/14 03:34:02;;;;;;;13.70;5.82;;;;;;;14.18;100.00;101862.34;5239289;28;20035;-65
2022/07/14 03:36:33;;;;;;;13.15;5.05;;;;;;;14.18;100.00;101861.50;5238897;28;20052;-65
2022/07/14 03:39:05;;;;;;;15.63;5.28;;;;;;;14.28;100.00;101865.19;5229278;28;20033;-65
2022/07/14 03:41:37;;;;;;;13.60;5.35;;;;;;;14.24;100.00;101869.06;5231699;28;20106;-65
2022/07/14 03:44:08;;;;;;;16.33;5.43;;;;;;;14.20;100.00;101865.75;5244745;28;20038;-64
2022/07/14 03:46:39;;;;;;;15.45;5.63;;;;;;;14.22;100.00;101871.88;5255168;28;20114;-66
2022/07/14 03:49:11;;;;;;;15.20;5.60;;;;;;;14.15;100.00;101878.66;5239129;28;20156;-65
2022/07/14 03:51:43;;;;;;;15.98;5.10;;;;;;;14.05;100.00;101874.97;5242905;28;20494;-65
2022/07/14 03:54:14;;;;;;;16.15;5.60;;;;;;;14.09;100.00;101885.38;5249052;28;20957;-65
2022/07/14 03:56:46;;;;;;;14.20;5.03;;;;;;;14.00;100.00;101890.53;5247483;28;20073;-65
2022/07/14 03:59:17;;;;;;;17.15;5.20;;;;;;;14.08;100.00;101894.38;5245602;28;20033;-65
2022/07/14 04:01:48;;;;;;;17.52;5.30;;;;;;;14.10;100.00;101897.81;5242353;28;20491;-65
2022/07/14 04:04:20;;;;;;;18.38;6.38;;;;;;;14.09;100.00;101896.09;5235753;28;20039;-65
2022/07/14 04:06:51;;;;;;;16.65;5.70;;;;;;;14.00;100.00;101899.47;5241927;28;20029;-64
2022/07/14 04:09:22;;;;;;;13.90;5.90;;;;;;;13.96;100.00;101899.78;5232770;28;21954;-65
2022/07/14 04:11:53;;;;;;;15.43;6.43;;;;;;;14.09;100.00;101895.22;5243782;28;20140;-65
2022/07/14 04:14:25;;;;;;;14.63;5.88;;;;;;;14.15;100.00;101897.44;5242438;28;20641;-65
2022/07/14 04:16:56;;;;;;;12.68;5.50;;;;;;;14.15;100.00;101894.75;5245864;28;20483;-64
2022/07/14 04:19:28;;;;;;;15.10;6.80;;;;;;;14.17;100.00;101895.53;5235298;28;20060;-65
2022/07/14 04:22:00;;;;;;;13.88;5.35;;;;;;;14.04;100.00;101894.72;5248166;28;20429;-65
2022/07/14 04:24:31;;;;;;;15.80;6.50;;;;;;;14.16;100.00;101883.06;5250576;28;20128;-64
2022/07/14 04:27:02;;;;;;;15.55;6.95;;;;;;;14.02;100.00;101891.31;5242713;28;20297;-65
2022/07/14 04:29:34;;;;;;;11.80;6.07;;;;;;;13.97;100.00;101886.28;5226111;28;20029;-64
2022/07/14 04:32:05;;;;;;;18.77;6.65;;;;;;;13.96;100.00;101887.25;5241467;28;20030;-64
2022/07/14 04:34:37;;;;;;;13.45;6.28;;;;;;;13.95;100.00;101896.25;5242990;28;20151;-64
2022/07/14 04:37:08;;;;;;;15.43;6.25;;;;;;;13.97;100.00;101896.16;5240926;28;20053;-64
2022/07/14 04:39:39;;;;;;;15.77;7.00;;;;;;;13.92;100.00;101893.78;5241843;28;20707;-65
2022/07/14 04:42:10;;;;;;;13.95;6.28;;;;;;;13.92;100.00;101885.75;5235515;28;20743;-65
2022/07/14 04:44:42;;;;;;;12.88;6.15;;;;;;;13.90;100.00;101876.94;5231487;28;20486;-64
2022/07/14 04:47:13;;;;;;;15.10;6.90;;;;;;;14.01;100.00;101879.69;5242945;28;20085;-64
2022/07/14 04:52:34;;;;;;;17.60;7.30;;;;;;;14.00;100.00;101875.31;5237600;28;20037;-65
2022/07/14 04:55:06;;;;;;;18.92;7.03;;;;;;;14.10;100.00;101876.34;5246686;28;20029;-65
2022/07/14 04:57:37;;;;;;;19.95;6.70;;;;;;;14.17;100.00;101875.88;5241542;28;20052;-64
2022/07/14 05:00:10;;;;;;;16.92;6.03;;;;;;;14.17;100.00;101882.13;5231542;28;20059;-64
2022/07/14 05:02:41;;;;;;;16.38;6.47;;;;;;;14.12;100.00;101878.91;5224923;28;20033;-64
2022/07/14 05:05:12;;;;;;;13.30;6.60;;;;;;;14.26;100.00;101894.81;5242405;28;20509;-65
2022/07/14 05:07:44;;;;;;;19.13;7.18;;;;;;;14.21;100.00;101898.81;5248234;28;20029;-63
2022/07/14 05:10:15;;;;;;;16.48;6.97;;;;;;;14.27;100.00;101901.91;5233997;28;20037;-64
2022/07/14 05:12:46;;;;;;;14.50;6.65;;;;;;;14.30;100.00;101906.19;5234108;28;20530;-64
2022/07/14 05:15:18;;;;;;;17.30;6.30;;;;;;;14.30;100.00;101911.56;5235111;28;20451;-64
2022/07/14 05:17:49;;;;;;;19.27;6.80;;;;;;;14.41;100.00;101916.97;5240862;28;20032;-64
2022/07/14 05:20:20;;;;;;;14.10;6.22;;;;;;;14.42;100.00;101899.03;5238552;28;20028;-64
2022/07/14 05:22:51;;;;;;;18.58;6.28;;;;;;;14.42;100.00;101896.34;5236305;28;20104;-64
2022/07/14 05:25:23;;;;;;;19.08;6.63;;;;;;;14.43;100.00;101893.53;5238754;28;20394;-65
2022/07/14 05:27:54;;;;;;;18.60;6.80;;;;;;;14.57;100.00;101907.78;5239911;28;20168;-65
2022/07/14 05:30:26;;;;;;;18.63;6.38;;;;;;;14.50;100.00;101900.16;5235852;28;20353;-64
2022/07/14 05:32:57;;;;;;;15.20;6.70;;;;;;;14.51;100.00;101891.13;5235333;28;20195;-64
2022/07/14 05:35:29;;;;;;;15.88;6.70;;;;;;;14.52;100.00;101895.53;5238960;28;20033;-65
2022/07/14 05:38:00;;;;;;;19.50;7.30;;;;;;;14.57;100.00;101884.44;5246723;28;20024;-65
2022/07/14 05:40:31;;;;;;;17.20;6.90;;;;;;;14.61;100.00;101893.13;5231934;28;20033;-66
2022/07/14 05:43:02;;;;;;;15.15;7.00;;;;;;;14.61;100.00;101893.13;5239159;28;20512;-64
2022/07/14 05:45:34;;;;;;;14.85;6.78;;;;;;;14.71;100.00;101886.09;5242759;28;20488;-65
2022/07/14 05:48:06;;;;;;;21.83;7.60;;;;;;;14.79;100.00;101902.47;5243460;28;20033;-65
2022/07/14 05:50:37;;;;;;;22.25;7.65;;;;;;;14.74;100.00;101896.59;5241607;28;20033;-64
2022/07/14 05:53:08;;;;;;;16.40;6.82;;;;;;;14.78;100.00;101902.59;5239710;28;20157;-64
2022/07/14 05:55:39;;;;;;;20.45;6.32;;;;;;;14.83;100.00;101895.03;5236337;28;20455;-64
2022/07/14 05:58:11;;;;;;;15.43;6.82;;;;;;;14.84;100.00;101894.91;5233692;28;20712;-64
2022/07/14 06:00:42;;;;;;;15.85;6.10;;;;;;;14.96;100.00;101890.41;5233841;28;20530;-64
2022/07/14 06:03:13;;;;;;;15.40;6.07;;;;;;;14.96;100.00;101889.53;5238004;28;20510;-65
2022/07/14 06:05:45;;;;;;;19.05;6.65;;;;;;;15.01;100.00;101893.56;5241568;28;20156;-64
2022/07/14 06:08:16;;;;;;;10.38;5.20;;;;;;;15.07;100.00;101887.75;5249388;28;20037;-65
2022/07/14 06:10:48;;;;;;;17.92;6.13;;;;;;;15.08;100.00;101896.66;5242701;28;20036;-65
2022/07/14 06:13:19;;;;;;;18.67;6.90;;;;;;;15.12;100.00;101889.19;5237019;28;20032;-65
2022/07/14 06:15:50;;;;;;;15.63;6.07;;;;;;;15.19;100.00;101906.56;5237073;28;20028;-65
2022/07/14 06:18:24;;;;;;;17.10;6.35;;;;;;;15.24;100.00;101897.13;5239136;28;20499;-65
2022/07/14 06:20:55;;;;;;;13.90;5.50;;;;;;;15.32;100.00;101890.28;5232947;28;20139;-65
2022/07/14 06:23:26;;;;;;;12.48;5.63;;;;;;;15.36;100.00;101891.75;5232862;28;20029;-64
2022/07/14 06:25:57;;;;;;;14.43;6.00;;;;;;;15.45;100.00;101886.50;5232140;28;20047;-65
2022/07/14 06:28:29;;;;;;;16.05;5.60;;;;;;;15.57;100.00;101890.06;5230598;28;20021;-64
2022/07/14 06:31:00;;;;;;;16.20;5.45;;;;;;;15.70;100.00;101892.56;5231093;28;20108;-65
2022/07/14 06:33:31;;;;;;;19.40;5.95;;;;;;;15.74;98.75;101891.38;5230274;28;20330;-65
2022/07/14 06:36:03;;;;;;;14.57;5.20;;;;;;;15.87;97.98;101897.47;5228431;28;20025;-66
2022/07/14 06:38:35;;;;;;;13.02;5.35;;;;;;;15.95;96.49;101898.66;5223605;28;20028;-65
2022/07/14 06:41:06;;;;;;;10.77;4.45;;;;;;;16.04;96.22;101906.00;5232282;28;20374;-64
2022/07/14 06:43:37;;;;;;;11.98;4.70;;;;;;;16.18;96.57;101904.84;5234357;28;20025;-65
2022/07/14 06:46:14;;;;;;;16.42;4.47;;;;;;;16.25;95.08;101904.19;5231682;28;20515;-65
2022/07/14 06:48:45;;;;;;;18.05;5.10;;;;;;;16.37;94.42;101909.53;5229514;28;20112;-65
2022/07/14 06:51:17;;;;;;;16.83;5.35;;;;;;;16.45;92.66;101907.91;5232780;28;20597;-65
2022/07/14 06:53:48;;;;;;;14.30;4.80;;;;;;;16.54;93.30;101900.88;5227476;28;20028;-65
2022/07/14 06:56:20;;;;;;;16.92;5.40;;;;;;;16.63;93.37;101897.41;5226983;28;20398;-65
2022/07/14 06:58:51;;;;;;;16.17;5.68;;;;;;;16.74;92.47;101890.22;5225839;28;20091;-65
2022/07/14 07:01:23;;;;;;;14.15;5.10;;;;;;;16.84;92.58;101891.19;5233335;28;20049;-65
2022/07/14 07:03:54;;;;;;;14.10;4.70;;;;;;;16.99;89.46;101886.28;5232368;28;21246;-64
2022/07/14 07:06:44;;;;;;;16.30;4.75;;;;;;;17.07;88.31;101889.19;5227713;28;20029;-65
2022/07/14 07:09:17;;;;;;;16.40;4.82;;;;;;;17.11;85.53;101889.78;5227791;28;20040;-64
2022/07/14 07:11:51;;;;;;;13.88;4.30;;;;;;;17.20;85.32;101897.03;5230237;28;20040;-65
2022/07/14 07:14:22;;;;;;;14.15;5.15;;;;;;;17.19;85.26;101895.34;5229260;28;20029;-64
2022/07/14 07:16:54;;;;;;;12.40;4.18;;;;;;;17.30;85.01;101891.72;5231530;28;20490;-65
2022/07/14 07:19:26;;;;;;;15.15;4.13;;;;;;;17.43;85.41;101895.00;5237157;28;20100;-64
2022/07/14 07:21:57;;;;;;;12.60;4.88;;;;;;;17.51;85.66;101897.00;5235510;28;20032;-64
2022/07/14 07:24:28;;;;;;;13.88;4.20;;;;;;;17.58;85.41;101888.22;5239737;28;20032;-64
2022/07/14 07:27:00;;;;;;;14.27;4.40;;;;;;;17.78;84.36;101891.00;5239650;28;20037;-64
2022/07/14 07:29:31;;;;;;;16.20;4.47;;;;;;;17.78;82.78;101882.91;5227747;28;20106;-64
2022/07/14 07:32:03;;;;;;;14.10;4.30;;;;;;;17.77;81.33;101887.44;5230695;28;20040;-64
2022/07/14 07:34:36;;;;;;;12.95;3.95;;;;;;;17.92;81.33;101881.66;5249135;28;20086;-64
2022/07/14 07:37:09;;;;;;;11.07;3.92;;;;;;;17.96;79.96;101885.78;5244772;28;20059;-64
2022/07/14 07:39:40;;;;;;;12.10;4.70;;;;;;;18.00;78.79;101879.13;5247992;28;20388;-64
2022/07/14 07:42:11;;;;;;;11.55;4.20;;;;;;;18.18;80.47;101872.03;5244264;28;20033;-64
2022/07/14 07:44:42;;;;;;;12.40;3.70;;;;;;;18.15;80.20;101868.75;5249124;28;20021;-64
2022/07/14 07:47:14;;;;;;;15.18;3.92;;;;;;;18.29;80.41;101859.38;5243457;28;20021;-64
2022/07/14 07:49:45;;;;;;;8.43;3.88;;;;;;;18.49;78.55;101861.06;5250190;28;20410;-64
2022/07/14 07:52:17;;;;;;;11.10;3.22;;;;;;;18.55;77.23;101863.19;5244132;28;20040;-64
2022/07/14 07:54:48;;;;;;;11.45;2.97;;;;;;;18.61;75.67;101869.84;5243931;28;20634;-64
2022/07/14 07:57:20;;;;;;;13.32;3.30;;;;;;;18.59;77.64;101872.69;5242673;28;20025;-65
2022/07/14 07:59:51;;;;;;;10.95;2.75;;;;;;;18.75;71.95;101863.97;5245588;28;20892;-65
2022/07/14 08:02:24;;;;;;;11.40;4.07;;;;;;;18.84;71.98;101859.59;5241877;28;20398;-64
2022/07/14 08:04:56;;;;;;;9.55;3.15;;;;;;;18.86;73.46;101860.28;5247905;28;20025;-64
2022/07/14 08:07:28;;;;;;;12.57;3.40;;;;;;;18.97;72.62;101857.41;5233946;28;20632;-64
2022/07/14 08:09:59;;;;;;;9.85;3.03;;;;;;;19.09;71.35;101849.97;5248087;28;20025;-64
2022/07/14 08:12:31;;;;;;;12.77;3.55;;;;;;;19.35;68.58;101857.41;5244078;28;20039;-64
2022/07/14 08:15:02;;;;;;;8.65;2.60;;;;;;;19.16;67.90;101844.81;5246015;28;20068;-64
2022/07/14 08:17:34;;;;;;;7.55;2.65;;;;;;;19.20;68.46;101844.34;5238112;28;20372;-65
2022/07/14 08:20:10;;;;;;;10.00;3.28;;;;;;;19.33;68.52;101846.72;5228596;28;20489;-63
2022/07/14 08:22:41;;;;;;;11.60;2.70;;;;;;;19.59;67.53;101851.41;5252291;28;21117;-63
2022/07/14 08:25:12;;;;;;;7.28;2.83;;;;;;;19.56;66.65;101835.50;5252541;28;20021;-63
2022/07/14 08:27:43;;;;;;;10.27;2.88;;;;;;;19.56;67.03;101835.50;5243636;28;20029;-64
2022/07/14 08:30:15;;;;;;;9.57;2.97;;;;;;;19.71;65.76;101838.50;5232704;28;20032;-64
2022/07/14 08:32:51;;;;;;;8.82;3.05;;;;;;;19.74;65.81;101846.38;5229864;28;21543;-63
2022/07/14 08:35:25;;;;;;;9.38;2.90;;;;;;;19.74;67.04;101849.91;5235680;28;21205;-64
2022/07/14 08:37:56;;;;;;;8.48;2.85;;;;;;;19.75;66.90;101835.38;5232727;28;20064;-63
2022/07/14 08:40:27;;;;;;;10.18;3.17;;;;;;;19.97;63.92;101838.63;5231535;28;21167;-63
2022/07/14 08:42:58;;;;;;;8.77;2.78;;;;;;;20.31;65.66;101840.63;5236513;28;20032;-64
2022/07/14 08:45:39;;;;;;;8.23;2.83;;;;;;;20.32;62.27;101847.75;5246563;28;20032;-63
2022/07/14 08:48:10;;;;;;;9.75;2.80;;;;;;;20.73;62.94;101842.66;5249457;28;20036;-64
2022/07/14 08:50:43;;;;;;;8.57;3.30;;;;;;;20.69;60.80;101847.56;5249806;28;20036;-63
2022/07/14 08:53:17;;;;;;;11.00;3.00;;;;;;;20.97;60.31;101832.97;5245796;28;20028;-64
2022/07/14 08:55:49;;;;;;;10.40;2.60;;;;;;;20.95;59.10;101831.25;5242986;28;20036;-63
2022/07/14 08:58:20;;;;;;;8.98;2.95;;;;;;;21.02;59.08;101836.88;5245257;28;20025;-64
2022/07/14 09:00:52;;;;;;;8.30;2.40;;;;;;;21.01;57.17;101831.63;5243013;28;20572;-63
2022/07/14 09:03:23;;;;;;;7.72;2.40;;;;;;;21.01;57.21;101828.91;5248317;28;20455;-64
2022/07/14 09:05:55;;;;;;;7.28;3.05;;;;;;;21.07;58.54;101836.38;5252463;28;20028;-64
2022/07/14 09:08:26;;;;;;;6.60;2.88;;;;;;;21.11;58.66;101827.78;5246814;28;20032;-64
2022/07/14 09:10:57;;;;;;;9.15;2.60;;;;;;;21.15;58.21;101829.16;5248571;28;20431;-63
2022/07/14 09:13:31;;;;;;;7.38;2.90;;;;;;;21.08;57.82;101829.97;5250339;28;20033;-64
2022/07/14 09:16:13;;;;;;;;;;;;;;;21.27;61.30;101820.72;5243682;28;20487;-63
2022/07/14 09:19:05;;;;;;;8.75;3.08;;;;;;;21.09;59.63;101832.53;5248179;28;19917;-63
2022/07/14 09:21:44;;;;;;;7.78;2.80;;;;;;;21.13;58.83;101828.47;5247863;28;20025;-63
2022/07/14 09:24:16;;;;;;;9.25;3.15;;;;;;;21.10;56.69;101822.50;5250148;28;20029;-63
2022/07/14 09:26:52;;;;;;;8.57;2.25;;;;;;;21.35;57.11;101818.88;5251099;28;20379;-64
2022/07/14 09:29:29;;;;;;;7.28;2.30;;;;;;;21.35;56.28;101828.88;5246231;28;20029;-63
2022/07/14 09:32:00;;;;;;;7.30;2.72;;;;;;;21.45;53.88;101818.75;5250826;28;20056;-63
2022/07/14 09:34:33;;;;;;;7.43;2.50;;;;;;;21.51;54.46;101820.81;5249307;28;20091;-63
2022/07/14 09:37:16;;;;;;;7.55;2.78;;;;;;;21.52;55.10;101822.50;5249882;28;20487;-63
2022/07/14 09:39:58;;;;;;;6.53;2.30;;;;;;;21.61;55.87;101817.97;5251599;28;20115;-64
2022/07/14 09:43:02;;;;;;;5.07;2.08;;;;;;;21.65;57.42;101823.88;5254286;28;20025;-63
2022/07/14 09:45:35;;;;;;;9.02;2.50;;;;;;;21.68;56.29;101823.56;5245897;28;20025;-63
2022/07/14 09:48:12;;;;;;;6.80;2.20;;;;;;;21.92;58.28;101812.75;5252211;28;20471;-63
2022/07/14 09:50:57;;;;;;;7.07;2.08;;;;;;;22.04;57.67;101821.41;5248094;28;20123;-64
2022/07/14 09:53:30;;;;;;;8.30;2.28;;;;;;;22.11;52.71;101825.16;5251521;28;20025;-63
2022/07/14 09:56:07;;;;;;;3.75;1.45;;;;;;;22.11;49.33;101827.88;5250507;28;20037;-64
2022/07/14 09:58:56;;;;;;;4.28;1.30;;;;;;;22.20;50.61;101833.31;5244511;28;20056;-63
2022/07/14 10:01:27;;;;;;;5.32;1.17;;;;;;;22.47;48.64;101823.97;5248131;28;20490;-63
2022/07/14 10:03:59;;;;;;;5.15;1.45;;;;;;;22.60;44.10;101826.16;5245532;28;20029;-64
2022/07/14 10:06:31;;;;;;;3.28;1.20;;;;;;;22.75;43.02;101827.16;5250692;28;20024;-63
2022/07/14 10:09:06;;;;;;;7.63;2.00;;;;;;;22.99;42.47;101820.81;5249718;28;20527;-64
2022/07/14 10:11:38;;;;;;;9.68;1.73;;;;;;;22.71;46.52;101817.66;5248219;28;20040;-64
2022/07/14 10:14:09;;;;;;;6.55;2.17;;;;;;;22.81;47.73;101821.00;5243929;28;20029;-64
2022/07/14 10:16:43;;;;;;;5.45;1.75;;;;;;;23.01;48.35;101824.19;5245591;28;20107;-64
2022/07/14 10:19:15;;;;;;;6.70;1.70;;;;;;;23.09;46.50;101828.78;5243056;28;20113;-64
2022/07/14 10:21:46;;;;;;;8.07;2.00;;;;;;;23.13;47.06;101829.25;5250389;28;20032;-63
2022/07/14 10:24:18;;;;;;;6.68;1.90;;;;;;;23.13;46.48;101832.84;5244919;28;20355;-64
2022/07/14 10:26:51;;;;;;;4.50;1.67;;;;;;;23.36;47.77;101829.34;5244849;28;20036;-64
2022/07/14 10:29:23;;;;;;;7.72;1.77;;;;;;;23.46;47.13;101832.69;5243772;28;20024;-63
2022/07/14 10:32:15;;;;;;;6.60;1.50;;;;;;;23.37;47.91;101828.31;5241268;28;20028;-63
2022/07/14 10:35:10;;;;;;;8.00;1.70;;;;;;;23.25;44.74;101844.19;5242013;28;20517;-64
2022/07/14 10:38:03;;;;;;;5.25;1.70;;;;;;;23.17;46.16;101836.91;5245784;28;20032;-64
2022/07/14 10:40:55;;;;;;;6.03;1.58;;;;;;;23.55;46.48;101841.66;5242788;28;20041;-63
2022/07/14 10:43:47;;;;;;;10.35;2.95;;;;;;;23.77;45.05;101850.91;5250612;28;20068;-63
2022/07/14 10:46:43;;;;;;;3.78;1.33;;;;;;;23.66;46.48;101836.66;5245653;28;20025;-64
2022/07/14 10:49:16;;;;;;;5.20;1.63;;;;;;;23.66;45.14;101841.25;5247335;28;20025;-65
2022/07/14 10:51:49;;;;;;;7.45;1.95;;;;;;;23.60;46.69;101834.63;5248532;28;20032;-65
2022/07/14 10:54:26;;;;;;;5.68;1.42;;;;;;;23.78;47.65;101836.22;5243439;28;20789;-64
2022/07/14 10:57:17;;;;;;;4.25;1.65;;;;;;;23.87;46.36;101827.00;5245203;28;20112;-64
2022/07/14 10:59:48;;;;;;;5.10;1.38;;;;;;;23.89;44.77;101838.56;5252010;28;20077;-64
2022/07/14 11:02:21;;;;;;;6.05;1.38;;;;;;;23.59;42.42;101832.97;5247620;28;20588;-64
2022/07/14 11:05:02;;;;;;;4.47;1.35;;;;;;;23.63;45.16;101828.84;5249499;28;20021;-64
2022/07/14 11:07:39;;;;;;;4.63;1.30;;;;;;;23.38;44.60;101836.31;5241619;28;20029;-64
2022/07/14 11:10:19;;;;;;;5.72;1.52;;;;;;;23.20;44.99;101839.25;5245086;28;20144;-64
2022/07/14 11:12:59;;;;;;;4.88;1.33;;;;;;;23.21;45.95;101832.81;5248143;28;20040;-64
2022/07/14 11:15:40;;;;;;;7.53;1.55;;;;;;;23.44;45.79;101835.59;5244062;28;20035;-64
2022/07/14 11:18:18;;;;;;;7.00;1.42;;;;;;;23.33;46.69;101838.72;5243170;28;20063;-64
2022/07/14 11:20:55;;;;;;;6.00;1.52;;;;;;;23.56;46.98;101837.91;5247541;28;20509;-64
2022/07/14 11:23:35;;;;;;;4.95;1.40;;;;;;;23.86;46.63;101830.78;5243605;28;20090;-64
2022/07/14 11:26:27;;;;;;;4.15;1.30;;;;;;;23.33;44.88;101822.38;5245364;28;20390;-64
2022/07/14 11:29:00;;;;;;;4.80;1.38;;;;;;;23.55;46.13;101826.19;5250319;28;20444;-64
2022/07/14 11:31:48;;;;;;;6.20;1.75;;;;;;;23.86;46.21;101818.00;5249560;28;20025;-64
2022/07/14 11:37:14;;;;;;;5.28;1.45;;;;;;;24.37;45.51;101814.66;5237873;28;20065;-64
2022/07/14 11:39:45;;;;;;;6.15;2.05;;;;;;;24.34;43.39;101820.50;5242246;28;20034;-64
2022/07/14 11:42:17;;;;;;;6.28;1.70;;;;;;;24.54;43.47;101820.84;5240341;28;20029;-64
2022/07/14 11:44:51;;;;;;;4.78;1.40;;;;;;;24.64;46.14;101823.28;5240705;28;20080;-64
2022/07/14 11:47:33;;;;;;;2.88;1.20;;;;;;;25.03;43.23;101827.66;5249166;28;20391;-64
2022/07/14 11:50:09;;;;;;;4.43;1.30;;;;;;;24.64;41.49;101826.88;5236803;28;20447;-64
2022/07/14 11:52:41;;;;;;;3.75;1.30;;;;;;;24.83;41.68;101819.16;5251705;28;20057;-64